createdAt,value
2022-10-19T00:00:38.813Z,3.57
2022-10-19T00:07:02.535Z,4.47
2022-10-19T00:10:13.138Z,3.13
2022-10-19T00:13:21.357Z,3.83
2022-10-19T00:16:34.017Z,2.93
2022-10-19T00:19:42.504Z,3.43
2022-10-19T00:22:51.756Z,6.67
2022-10-19T00:26:01.678Z,2.83
2022-10-19T00:29:12.295Z,7.20
2022-10-19T00:32:20.807Z,6.37
2022-10-19T00:35:29.278Z,4.93
2022-10-19T00:38:37.697Z,6.93
2022-10-19T00:41:49.120Z,4.77
2022-10-19T00:45:07.195Z,4.37
2022-10-19T00:48:22.286Z,3.30
2022-10-19T00:51:33.509Z,4.33
2022-10-19T00:54:45.114Z,5.47
2022-10-19T00:57:55.520Z,5.33
2022-10-19T01:01:06.778Z,2.83
2022-10-19T01:04:16.246Z,3.33
2022-10-19T01:07:26.848Z,3.80
2022-10-19T01:10:48.421Z,3.63
2022-10-19T01:14:28.963Z,3.70
2022-10-19T01:17:54.472Z,5.17
2022-10-19T01:21:26.106Z,2.80
2022-10-19T01:25:00.620Z,3.40
2022-10-19T01:28:33.739Z,4.20
2022-10-19T01:31:53.761Z,6.30
2022-10-19T01:35:11.329Z,3.57
2022-10-19T01:38:35.003Z,3.97
2022-10-19T01:41:52.112Z,3.33
2022-10-19T01:45:07.246Z,2.50
2022-10-19T01:48:24.457Z,2.50
2022-10-19T01:51:39.329Z,3.07
2022-10-19T01:54:52.933Z,2.90
2022-10-19T01:58:09.842Z,4.63
2022-10-19T02:01:23.726Z,7.83
2022-10-19T02:04:35.345Z,2.63
2022-10-19T02:07:49.883Z,4.80
2022-10-19T02:11:02.515Z,6.63
2022-10-19T02:14:16.479Z,4.60
2022-10-19T02:17:32.063Z,3.50
2022-10-19T02:20:41.585Z,3.17
2022-10-19T02:23:51.894Z,4.30
2022-10-19T02:27:05.416Z,5.10
2022-10-19T02:30:18.493Z,4.30
2022-10-19T02:33:27.275Z,5.63
2022-10-19T02:36:37.123Z,5.53
2022-10-19T02:39:45.728Z,5.07
2022-10-19T02:43:01.910Z,3.77
2022-10-19T02:46:18.555Z,3.40
2022-10-19T02:49:28.604Z,3.47
2022-10-19T02:52:39.742Z,4.10
2022-10-19T02:55:50.912Z,6.20
2022-10-19T02:58:59.181Z,9.50
2022-10-19T03:02:07.458Z,6.97
2022-10-19T03:05:15.788Z,4.97
2022-10-19T03:08:25.462Z,5.90
2022-10-19T03:11:33.773Z,6.43
2022-10-19T03:14:42.181Z,6.23
2022-10-19T03:17:54.309Z,6.17
2022-10-19T03:21:08.986Z,4.40
2022-10-19T03:24:18.857Z,5.10
2022-10-19T03:27:27.308Z,3.30
2022-10-19T03:30:35.762Z,8.87
2022-10-19T03:33:44.024Z,3.37
2022-10-19T03:36:52.329Z,4.27
2022-10-19T03:40:02.427Z,3.17
2022-10-19T03:43:10.612Z,6.23
2022-10-19T03:46:19.579Z,7.03
2022-10-19T03:49:27.755Z,4.23
2022-10-19T03:52:35.943Z,4.97
2022-10-19T03:55:45.476Z,5.47
2022-10-19T03:58:56.302Z,5.50
2022-10-19T04:02:05.047Z,5.83
2022-10-19T04:05:13.586Z,7.73
2022-10-19T04:08:21.757Z,5.00
2022-10-19T04:11:33.859Z,3.33
2022-10-19T04:14:56.200Z,4.73
2022-10-19T04:18:05.932Z,5.37
2022-10-19T04:21:24.195Z,6.20
2022-10-19T04:24:32.738Z,2.80
2022-10-19T04:27:42.781Z,2.70
2022-10-19T04:30:51.216Z,3.23
2022-10-19T04:33:59.453Z,3.23
2022-10-19T04:37:07.915Z,4.73
2022-10-19T04:40:16.572Z,5.20
2022-10-19T04:43:26.232Z,5.10
2022-10-19T04:46:34.790Z,3.47
2022-10-19T04:49:43.269Z,4.23
2022-10-19T04:52:51.780Z,3.33
2022-10-19T04:56:00.510Z,5.27
2022-10-19T04:59:11.671Z,16.77
2022-10-19T05:02:20.184Z,18.17
2022-10-19T05:05:28.672Z,23.47
2022-10-19T05:08:38.051Z,20.90
2022-10-19T05:11:46.264Z,21.10
2022-10-19T05:14:56.086Z,15.03
2022-10-19T05:18:04.575Z,18.63
2022-10-19T05:21:15.290Z,17.50
2022-10-19T05:24:23.993Z,15.10
2022-10-19T05:27:32.719Z,21.73
2022-10-19T05:30:46.672Z,23.40
2022-10-19T05:33:57.852Z,26.63
2022-10-19T05:37:06.114Z,26.33
2022-10-19T05:40:14.274Z,20.20
2022-10-19T05:43:22.464Z,26.07
2022-10-19T05:46:33.666Z,26.27
2022-10-19T05:49:41.953Z,26.63
2022-10-19T05:52:50.105Z,22.03
2022-10-19T05:55:59.127Z,27.13
2022-10-19T05:59:09.869Z,22.87
2022-10-19T06:02:19.546Z,26.67
2022-10-19T06:05:28.139Z,25.87
2022-10-19T06:08:37.383Z,26.37
2022-10-19T06:11:46.398Z,29.87
2022-10-19T06:14:55.678Z,28.73
2022-10-19T06:18:07.655Z,31.03
2022-10-19T06:21:19.014Z,26.23
2022-10-19T06:24:27.287Z,26.73
2022-10-19T06:27:36.409Z,35.70
2022-10-19T06:30:45.176Z,32.27
2022-10-19T06:33:55.823Z,30.30
2022-10-19T06:37:04.229Z,26.73
2022-10-19T06:40:13.303Z,25.53
2022-10-19T06:43:21.571Z,22.27
2022-10-19T06:46:30.020Z,24.07
2022-10-19T06:49:39.857Z,24.33
2022-10-19T06:52:48.860Z,19.97
2022-10-19T06:55:59.949Z,20.57
2022-10-19T06:59:08.465Z,24.70
2022-10-19T07:02:16.894Z,17.97
2022-10-19T07:05:26.827Z,17.47
2022-10-19T07:08:37.559Z,14.83
2022-10-19T07:11:46.371Z,14.67
2022-10-19T07:14:55.628Z,15.83
2022-10-19T07:18:04.030Z,16.30
2022-10-19T07:21:16.985Z,14.33
2022-10-19T07:24:26.220Z,15.53
2022-10-19T07:27:40.131Z,14.57
2022-10-19T07:30:48.738Z,14.50
2022-10-19T07:33:58.978Z,14.37
2022-10-19T07:37:08.762Z,16.33
2022-10-19T07:40:17.071Z,16.20
2022-10-19T07:43:25.443Z,15.70
2022-10-19T07:46:35.812Z,14.83
2022-10-19T07:49:44.178Z,14.03
2022-10-19T07:52:54.885Z,13.73
2022-10-19T07:56:09.905Z,15.13
2022-10-19T07:59:18.165Z,17.70
2022-10-19T08:02:30.899Z,14.37
2022-10-19T08:05:47.826Z,17.13
2022-10-19T08:08:58.023Z,19.33
2022-10-19T08:12:07.325Z,15.03
2022-10-19T08:15:15.906Z,16.17
2022-10-19T08:18:24.127Z,18.43
2022-10-19T08:21:32.665Z,15.93
2022-10-19T08:24:42.455Z,20.77
2022-10-19T08:27:51.320Z,17.27
2022-10-19T08:30:59.827Z,21.67
2022-10-19T08:34:09.329Z,21.37
2022-10-19T08:37:26.284Z,17.23
2022-10-19T08:40:48.551Z,19.17
2022-10-19T08:44:35.361Z,18.37
2022-10-19T08:48:03.241Z,19.00
2022-10-19T08:51:14.689Z,17.40
2022-10-19T08:54:24.048Z,14.80
2022-10-19T08:57:49.966Z,20.87
2022-10-19T09:01:08.479Z,18.13
2022-10-19T09:04:25.549Z,16.33
2022-10-19T09:07:45.476Z,15.13
2022-10-19T09:10:57.451Z,13.43
2022-10-19T09:14:17.539Z,13.37
2022-10-19T09:17:26.147Z,14.23
2022-10-19T09:20:42.429Z,11.53
2022-10-19T09:24:03.563Z,16.93
2022-10-19T09:27:22.717Z,13.90
2022-10-19T09:30:39.984Z,14.63
2022-10-19T09:33:57.210Z,14.00
2022-10-19T09:37:06.168Z,12.77
2022-10-19T09:40:19.490Z,13.43
2022-10-19T09:43:28.378Z,11.00
2022-10-19T09:46:52.412Z,9.83
2022-10-19T09:50:20.627Z,9.77
2022-10-19T09:53:31.338Z,9.93
2022-10-19T09:56:40.716Z,9.00
2022-10-19T09:59:53.570Z,12.10
2022-10-19T10:03:03.280Z,10.77
2022-10-19T10:06:17.246Z,12.20
2022-10-19T10:09:29.988Z,10.60
2022-10-19T10:12:41.345Z,10.97
2022-10-19T10:15:55.492Z,13.43
2022-10-19T10:19:09.938Z,9.63
2022-10-19T10:22:28.192Z,12.07
2022-10-19T10:25:37.899Z,9.37
2022-10-19T10:28:51.968Z,10.33
2022-10-19T10:32:07.217Z,14.17
2022-10-19T10:35:25.676Z,11.10
2022-10-19T10:38:38.128Z,9.27
2022-10-19T10:41:50.310Z,10.97
2022-10-19T10:45:00.893Z,10.73
2022-10-19T10:48:27.982Z,10.87
2022-10-19T10:51:42.346Z,8.77
2022-10-19T10:55:03.606Z,9.33
2022-10-19T10:58:24.261Z,9.07
2022-10-19T11:01:41.633Z,8.83
2022-10-19T11:04:57.414Z,7.97
2022-10-19T11:08:19.839Z,8.17
2022-10-19T11:11:37.412Z,8.70
2022-10-19T11:14:52.285Z,6.60
2022-10-19T11:18:18.075Z,7.00
2022-10-19T11:21:38.429Z,7.73
2022-10-19T11:25:28.493Z,8.27
2022-10-19T11:28:55.370Z,9.27
2022-10-19T11:32:05.705Z,7.30
2022-10-19T11:35:35.604Z,9.80
2022-10-19T11:39:01.766Z,7.63
2022-10-19T11:42:22.272Z,7.07
2022-10-19T11:45:48.525Z,7.03
2022-10-19T11:49:23.930Z,6.00
2022-10-19T11:52:46.527Z,5.87
2022-10-19T11:56:04.790Z,6.43
2022-10-19T11:59:30.748Z,6.20
2022-10-19T12:03:26.041Z,5.87
2022-10-19T12:06:52.501Z,6.77
2022-10-19T12:10:18.122Z,4.50
2022-10-19T12:13:39.463Z,6.97
2022-10-19T12:16:57.419Z,4.53
2022-10-19T12:20:21.435Z,5.17
2022-10-19T12:23:35.682Z,4.40
2022-10-19T12:26:47.203Z,3.83
2022-10-19T12:29:59.625Z,4.37
2022-10-19T12:33:21.968Z,4.50
2022-10-19T12:36:43.669Z,4.90
2022-10-19T12:39:59.725Z,4.70
2022-10-19T12:43:18.584Z,4.37
2022-10-19T12:46:39.884Z,3.60
2022-10-19T12:49:53.631Z,7.87
2022-10-19T12:53:02.312Z,3.70
2022-10-19T12:56:18.919Z,3.87
2022-10-19T12:59:31.478Z,3.83
2022-10-19T13:02:43.160Z,3.43
2022-10-19T13:06:00.709Z,3.57
2022-10-19T13:09:24.339Z,3.43
2022-10-19T13:12:49.045Z,3.67
2022-10-19T13:15:58.391Z,3.50
2022-10-19T13:19:22.167Z,5.07
2022-10-19T13:22:32.550Z,4.33
2022-10-19T13:25:42.280Z,3.93
2022-10-19T13:28:57.235Z,4.00
2022-10-19T13:32:37.771Z,3.20
2022-10-19T13:35:48.244Z,3.77
2022-10-19T13:39:16.460Z,3.10
2022-10-19T13:42:28.391Z,3.23
2022-10-19T13:45:38.440Z,3.07
2022-10-19T13:49:36.672Z,4.30
2022-10-19T13:53:26.001Z,3.03
2022-10-19T13:56:59.983Z,3.13
2022-10-19T14:00:19.724Z,3.17
2022-10-19T14:03:47.930Z,4.83
2022-10-19T14:07:01.871Z,3.03
2022-10-19T14:10:17.907Z,7.40
2022-10-19T14:13:27.896Z,4.03
2022-10-19T14:16:36.635Z,4.03
2022-10-19T14:19:48.042Z,4.07
2022-10-19T14:22:56.427Z,4.03
2022-10-19T14:26:11.586Z,4.97
2022-10-19T14:29:22.244Z,4.90
2022-10-19T14:32:36.624Z,4.63
2022-10-19T14:35:54.442Z,7.10
2022-10-19T14:39:03.294Z,5.37
2022-10-19T14:42:12.879Z,5.60
2022-10-19T14:45:26.207Z,4.87
2022-10-19T14:48:36.909Z,4.70
2022-10-19T14:51:51.289Z,3.80
2022-10-19T14:55:10.571Z,5.13
2022-10-19T14:58:25.454Z,4.90
2022-10-19T15:01:36.939Z,4.67
2022-10-19T15:04:45.499Z,5.43
2022-10-19T15:07:54.717Z,5.87
2022-10-19T15:11:03.062Z,9.00
2022-10-19T15:14:16.853Z,7.50
2022-10-19T15:17:30.268Z,5.87
2022-10-19T15:20:49.486Z,5.67
2022-10-19T15:24:28.221Z,6.57
2022-10-19T15:27:39.689Z,7.77
2022-10-19T15:31:00.903Z,7.70
2022-10-19T15:34:28.826Z,6.97
2022-10-19T15:37:45.743Z,5.87
2022-10-19T15:41:00.223Z,8.03
2022-10-19T15:44:31.881Z,6.77
2022-10-19T15:48:24.993Z,7.13
2022-10-19T15:51:48.787Z,6.43
2022-10-19T15:54:59.993Z,7.10
2022-10-19T15:58:11.173Z,5.77
2022-10-19T16:01:22.578Z,4.97
2022-10-19T16:04:31.172Z,4.63
2022-10-19T16:07:42.664Z,4.43
2022-10-19T16:10:50.966Z,4.77
2022-10-19T16:13:59.273Z,5.67
2022-10-19T16:17:07.595Z,4.67
2022-10-19T16:20:17.510Z,4.90
2022-10-19T16:23:27.918Z,4.03
2022-10-19T16:26:36.385Z,4.13
2022-10-19T16:29:45.573Z,5.47
2022-10-19T16:32:53.993Z,4.17
2022-10-19T16:36:06.445Z,3.83
2022-10-19T16:39:15.974Z,3.67
2022-10-19T16:42:29.667Z,4.47
2022-10-19T16:45:43.581Z,3.97
2022-10-19T16:48:51.969Z,4.47
2022-10-19T16:52:01.622Z,3.33
2022-10-19T16:55:12.580Z,4.83
2022-10-19T16:58:21.073Z,3.23
2022-10-19T17:01:31.183Z,3.27
2022-10-19T17:04:41.602Z,3.17
2022-10-19T17:07:50.086Z,3.00
2022-10-19T17:11:10.419Z,3.63
2022-10-19T17:14:18.710Z,5.53
2022-10-19T17:17:27.016Z,6.50
2022-10-19T17:20:35.193Z,3.57
2022-10-19T17:23:45.226Z,4.47
2022-10-19T17:26:55.651Z,3.73
2022-10-19T17:30:04.573Z,3.70
2022-10-19T17:33:12.871Z,3.83
2022-10-19T17:36:25.273Z,3.90
2022-10-19T17:39:33.526Z,6.83
2022-10-19T17:42:43.200Z,4.90
2022-10-19T17:45:59.870Z,3.67
2022-10-19T17:49:08.930Z,6.37
2022-10-19T17:52:17.391Z,3.93
2022-10-19T17:55:27.102Z,3.27
2022-10-19T17:58:39.859Z,3.50
2022-10-19T18:01:48.461Z,4.80
2022-10-19T18:04:56.797Z,3.70
2022-10-19T18:08:05.146Z,4.67
2022-10-19T18:11:17.615Z,3.53
2022-10-19T18:14:27.408Z,5.87
2022-10-19T18:17:36.118Z,3.73
2022-10-19T18:20:44.648Z,4.70
2022-10-19T18:23:54.380Z,4.50
2022-10-19T18:27:02.825Z,6.03
2022-10-19T18:30:13.444Z,5.47
2022-10-19T18:33:23.326Z,4.17
2022-10-19T18:36:32.866Z,6.03
2022-10-19T18:39:42.556Z,4.40
2022-10-19T18:42:53.884Z,4.87
2022-10-19T18:46:03.486Z,6.00
2022-10-19T18:49:13.548Z,5.57
2022-10-19T18:52:21.985Z,5.50
2022-10-19T18:55:31.171Z,5.57
2022-10-19T18:58:40.502Z,5.80
2022-10-19T19:01:50.672Z,6.37
2022-10-19T19:04:59.166Z,5.90
2022-10-19T19:08:07.533Z,5.83
2022-10-19T19:11:19.082Z,5.27
2022-10-19T19:14:27.700Z,6.67
2022-10-19T19:17:38.088Z,5.17
2022-10-19T19:20:46.403Z,6.17
2022-10-19T19:23:57.588Z,7.20
2022-10-19T19:27:05.902Z,11.57
2022-10-19T19:30:14.206Z,8.83
2022-10-19T19:33:23.788Z,6.87
2022-10-19T19:36:32.057Z,6.67
2022-10-19T19:39:41.293Z,8.23
2022-10-19T19:42:49.613Z,8.83
2022-10-19T19:46:01.966Z,7.23
2022-10-19T19:49:14.784Z,10.13
2022-10-19T19:52:23.092Z,6.23
2022-10-19T19:55:38.240Z,7.57
2022-10-19T19:58:48.633Z,6.17
2022-10-19T20:01:56.903Z,7.13
2022-10-19T20:05:06.959Z,12.07
2022-10-19T20:08:15.275Z,5.83
2022-10-19T20:11:25.368Z,7.90
2022-10-19T20:14:33.770Z,7.10
2022-10-19T20:17:42.644Z,6.10
2022-10-19T20:20:52.822Z,7.27
2022-10-19T20:24:03.586Z,8.50
2022-10-19T20:31:07.881Z,7.23
2022-10-19T20:34:20.537Z,9.03
2022-10-19T20:37:32.808Z,8.00
2022-10-19T20:40:41.653Z,7.80
2022-10-19T20:43:51.009Z,8.07
2022-10-19T20:46:59.344Z,6.70
2022-10-19T20:50:09.937Z,7.90
2022-10-19T20:53:19.973Z,8.13
2022-10-19T20:56:31.867Z,6.23
2022-10-19T20:59:40.134Z,6.57
2022-10-19T21:02:48.384Z,8.17
2022-10-19T21:05:56.616Z,9.77
2022-10-19T21:09:06.646Z,8.90
2022-10-19T21:12:15.650Z,7.80
2022-10-19T21:15:23.845Z,9.20
2022-10-19T21:18:32.093Z,8.00
2022-10-19T21:21:43.742Z,9.97
2022-10-19T21:24:53.812Z,9.60
2022-10-19T21:28:02.141Z,12.20
2022-10-19T21:31:11.444Z,13.47
2022-10-19T21:34:22.356Z,11.33
2022-10-19T21:37:30.944Z,12.30
2022-10-19T21:40:40.501Z,10.20
2022-10-19T21:43:49.336Z,9.17
2022-10-19T21:46:57.704Z,9.40
2022-10-19T21:50:07.433Z,9.53
2022-10-19T21:53:20.604Z,8.23
2022-10-19T21:56:30.617Z,9.77
2022-10-19T21:59:39.052Z,8.97
2022-10-19T22:02:49.490Z,7.97
2022-10-19T22:05:57.674Z,7.67
2022-10-19T22:09:08.900Z,10.67
2022-10-19T22:12:18.682Z,9.20
2022-10-19T22:15:26.846Z,9.67
2022-10-19T22:18:35.818Z,11.27
2022-10-19T22:21:44.588Z,12.37
2022-10-19T22:24:52.931Z,10.77
2022-10-19T22:28:03.405Z,11.63
2022-10-19T22:31:13.157Z,13.37
2022-10-19T22:34:21.712Z,14.20
2022-10-19T22:37:29.973Z,9.07
2022-10-19T22:40:38.341Z,9.87
2022-10-19T22:43:51.998Z,12.63
2022-10-19T22:47:00.458Z,13.43
2022-10-19T22:50:11.809Z,16.87
2022-10-19T22:53:23.409Z,16.07
2022-10-19T22:56:31.967Z,14.70
2022-10-19T22:59:41.521Z,19.70
2022-10-19T23:02:49.759Z,17.90
2022-10-19T23:05:58.257Z,20.83
2022-10-19T23:09:06.554Z,25.33
2022-10-19T23:12:15.118Z,20.77
2022-10-19T23:15:24.724Z,23.00
2022-10-19T23:18:33.595Z,24.87
2022-10-19T23:21:42.051Z,21.40
2022-10-19T23:24:50.371Z,24.57
2022-10-19T23:27:58.527Z,24.97
2022-10-19T23:31:11.504Z,23.70
2022-10-19T23:34:20.004Z,28.17
2022-10-19T23:37:28.260Z,25.70
2022-10-19T23:40:36.716Z,27.77
2022-10-19T23:43:45.500Z,24.57
2022-10-19T23:46:55.099Z,28.87
2022-10-19T23:50:03.595Z,29.50
2022-10-19T23:53:12.238Z,29.30
2022-10-19T23:56:23.516Z,31.83
2022-10-19T23:59:31.989Z,28.20
